createdAt,value
2022-08-05T00:02:27.801Z,9.45
2022-08-05T00:07:59.683Z,9.90
2022-08-05T00:10:11.989Z,5.32
2022-08-05T00:12:48.461Z,6.63
2022-08-05T00:15:55.953Z,10.35
2022-08-05T00:20:08.891Z,7.30
2022-08-05T00:22:36.788Z,7.53
2022-08-05T00:25:04.705Z,8.40
2022-08-05T00:27:37.696Z,7.90
2022-08-05T00:30:11.434Z,9.23
2022-08-05T00:32:38.795Z,6.72
2022-08-05T00:35:10.273Z,7.95
2022-08-05T00:37:53.045Z,10.85
2022-08-05T00:40:28.308Z,9.10
2022-08-05T00:42:58.226Z,8.88
2022-08-05T00:45:38.015Z,12.50
2022-08-05T00:48:07.402Z,7.43
2022-08-05T00:50:36.030Z,14.15
2022-08-05T00:53:03.793Z,8.85
2022-08-05T00:55:42.468Z,10.90
2022-08-05T00:58:11.516Z,8.65
2022-08-05T01:00:40.333Z,10.18
2022-08-05T01:11:11.291Z,10.40
2022-08-05T01:13:57.734Z,8.18
2022-08-05T01:16:32.060Z,12.05
2022-08-05T01:19:10.461Z,11.00
2022-08-05T01:22:15.402Z,13.45
2022-08-05T01:25:00.259Z,8.05
2022-08-05T01:27:55.130Z,11.77
2022-08-05T01:40:57.388Z,9.65
2022-08-05T01:43:27.633Z,12.50
2022-08-05T01:53:56.898Z,7.63
2022-08-05T01:56:11.470Z,10.57
2022-08-05T01:58:44.906Z,9.40
2022-08-05T02:03:55.541Z,10.20
2022-08-05T02:06:37.290Z,9.25
2022-08-05T02:11:42.120Z,11.00
2022-08-05T02:14:14.201Z,10.77
2022-08-05T02:16:52.181Z,11.50
2022-08-05T02:21:58.994Z,5.55
2022-08-05T02:27:10.243Z,7.70
2022-08-05T02:35:02.111Z,6.85
2022-08-05T02:55:53.736Z,8.07
2022-08-05T02:58:26.728Z,11.88
2022-08-05T03:00:56.605Z,10.80
2022-08-05T03:16:36.981Z,11.45
2022-08-05T03:19:12.837Z,7.63
2022-08-05T03:31:57.262Z,10.05
2022-08-05T03:34:28.742Z,6.22
2022-08-05T03:36:56.099Z,8.75
2022-08-05T03:41:56.256Z,10.77
2022-08-05T03:46:56.381Z,9.30
2022-08-05T03:49:24.243Z,8.10
2022-08-05T03:52:48.367Z,7.45
2022-08-05T03:55:07.096Z,9.32
2022-08-05T04:00:16.989Z,10.80
2022-08-05T04:09:58.524Z,8.93
2022-08-05T04:14:59.971Z,11.35
2022-08-05T04:17:36.463Z,5.47
2022-08-05T04:20:19.910Z,8.95
2022-08-05T04:22:47.116Z,10.18
2022-08-05T04:25:17.797Z,7.40
2022-08-05T04:32:53.789Z,9.20
2022-08-05T04:35:20.934Z,7.72
2022-08-05T04:40:35.729Z,12.70
2022-08-05T04:43:03.967Z,7.90
2022-08-05T04:46:05.054Z,10.27
2022-08-05T04:48:32.372Z,12.30
2022-08-05T04:53:39.264Z,10.85
2022-08-05T04:56:15.109Z,13.70
2022-08-05T05:04:09.694Z,8.52
2022-08-05T05:06:44.936Z,13.87
2022-08-05T05:09:17.720Z,8.95
2022-08-05T05:26:28.656Z,10.73
2022-08-05T05:29:00.730Z,8.30
2022-08-05T05:41:24.559Z,13.50
2022-08-05T05:43:58.071Z,8.27
2022-08-05T05:46:27.476Z,8.30
2022-08-05T05:48:54.598Z,9.63
2022-08-05T05:53:57.205Z,9.23
2022-08-05T05:59:03.590Z,10.48
2022-08-05T06:01:37.129Z,11.75
2022-08-05T06:04:07.538Z,8.30
2022-08-05T06:06:35.398Z,9.57
2022-08-05T06:09:04.414Z,12.07
2022-08-05T06:11:31.671Z,6.93
2022-08-05T06:14:00.453Z,6.18
2022-08-05T06:16:32.708Z,7.22
2022-08-05T06:24:12.159Z,8.05
2022-08-05T06:26:40.133Z,8.05
2022-08-05T06:29:42.965Z,7.15
2022-08-05T06:34:53.476Z,5.30
2022-08-05T06:37:55.918Z,7.38
2022-08-05T06:40:11.777Z,5.07
2022-08-05T06:42:39.824Z,9.27
2022-08-05T06:45:09.460Z,3.88
2022-08-05T06:48:37.317Z,6.25
2022-08-05T06:50:26.614Z,5.32
2022-08-05T07:10:53.151Z,5.40
2022-08-05T07:18:00.996Z,6.28
2022-08-05T07:35:55.674Z,3.13
2022-08-05T07:38:25.385Z,6.18
2022-08-05T07:41:04.454Z,4.85
2022-08-05T07:43:48.168Z,5.05
2022-08-05T07:46:25.100Z,3.75
2022-08-05T07:51:54.309Z,4.22
2022-08-05T07:54:30.704Z,4.50
2022-08-05T07:57:41.996Z,2.97
2022-08-05T07:59:49.131Z,3.88
2022-08-05T08:02:17.897Z,3.90
2022-08-05T08:04:47.306Z,5.25
2022-08-05T08:07:16.454Z,3.20
2022-08-05T08:09:45.244Z,3.08
2022-08-05T08:12:35.485Z,4.35
2022-08-05T08:15:03.542Z,5.50
2022-08-05T08:17:31.957Z,3.85
2022-08-05T08:20:21.789Z,3.10
2022-08-05T08:22:53.443Z,3.70
2022-08-05T08:25:26.762Z,2.95
2022-08-05T08:28:11.365Z,3.67
2022-08-05T08:30:49.504Z,2.70
2022-08-05T08:33:17.624Z,1.33
2022-08-05T08:41:07.393Z,0.73
2022-08-05T08:46:23.960Z,0.90
2022-08-05T08:49:04.938Z,1.60
2022-08-05T08:52:03.171Z,2.20
2022-08-05T08:57:00.058Z,1.80
2022-08-05T09:09:34.641Z,3.15
2022-08-05T09:12:19.953Z,0.80
2022-08-05T09:14:58.375Z,1.23
2022-08-05T09:17:42.733Z,0.82
2022-08-05T09:20:20.909Z,0.52
2022-08-05T09:23:19.656Z,1.25
2022-08-05T09:26:02.328Z,2.20
2022-08-05T09:28:37.765Z,1.08
2022-08-05T09:31:43.466Z,1.95
2022-08-05T09:33:56.203Z,0.82
2022-08-05T09:36:27.442Z,0.40
2022-08-05T09:39:02.417Z,3.00
2022-08-05T09:41:32.881Z,1.35
2022-08-05T09:44:05.551Z,1.95
2022-08-05T09:46:34.942Z,0.65
2022-08-05T09:49:19.498Z,2.35
2022-08-05T09:51:48.846Z,1.48
2022-08-05T09:54:28.925Z,1.17
2022-08-05T09:57:01.590Z,1.75
2022-08-05T09:59:29.513Z,0.77
2022-08-05T10:02:02.293Z,3.53
2022-08-05T10:04:38.562Z,1.25
2022-08-05T10:07:20.366Z,0.60
2022-08-05T10:10:13.848Z,1.45
2022-08-05T10:12:49.324Z,1.67
2022-08-05T10:25:49.308Z,4.70
2022-08-05T10:28:29.161Z,3.42
2022-08-05T10:32:48.259Z,0.60
2022-08-05T10:33:52.432Z,2.78
2022-08-05T10:36:23.417Z,1.60
2022-08-05T10:38:58.426Z,3.63
2022-08-05T10:41:45.322Z,1.50
2022-08-05T10:44:18.168Z,0.85
2022-08-05T10:49:18.524Z,1.20
2022-08-05T10:52:03.329Z,2.28
2022-08-05T10:55:01.825Z,1.02
2022-08-05T10:57:33.747Z,0.52
2022-08-05T11:00:20.459Z,2.50
2022-08-05T11:03:23.890Z,2.58
2022-08-05T11:06:15.674Z,1.20
2022-08-05T11:09:16.588Z,2.75
2022-08-05T11:14:49.479Z,0.70
2022-08-05T11:26:08.859Z,2.95
2022-08-05T11:28:47.193Z,1.00
2022-08-05T11:31:58.537Z,0.85
2022-08-05T11:34:36.840Z,1.48
2022-08-05T11:37:06.213Z,4.72
2022-08-05T11:40:00.340Z,3.63
2022-08-05T11:45:05.242Z,3.30
2022-08-05T11:47:49.974Z,2.20
2022-08-05T11:50:19.793Z,0.75
2022-08-05T11:52:53.164Z,1.42
2022-08-05T12:03:29.076Z,0.68
2022-08-05T12:11:05.473Z,1.30
2022-08-05T12:18:54.634Z,1.50
2022-08-05T12:21:26.990Z,1.48
2022-08-05T12:29:01.453Z,2.40
2022-08-05T12:31:42.387Z,0.93
2022-08-05T12:34:21.389Z,2.55
2022-08-05T12:36:53.436Z,2.42
2022-08-05T12:39:21.665Z,1.58
2022-08-05T12:41:50.785Z,6.85
2022-08-05T12:44:33.098Z,1.48
2022-08-05T12:47:02.319Z,3.22
2022-08-05T12:50:04.622Z,0.90
2022-08-05T12:52:35.350Z,2.40
2022-08-05T12:55:23.922Z,1.45
2022-08-05T12:58:49.789Z,4.07
2022-08-05T13:01:59.783Z,3.40
2022-08-05T13:03:31.915Z,0.75
2022-08-05T13:06:01.039Z,2.20
2022-08-05T13:08:32.417Z,3.60
2022-08-05T13:11:00.826Z,2.10
2022-08-05T13:14:06.516Z,0.60
2022-08-05T13:16:17.011Z,0.38
2022-08-05T13:18:51.480Z,1.73
2022-08-05T13:21:18.734Z,0.77
2022-08-05T13:23:50.918Z,0.85
2022-08-05T13:26:21.842Z,1.45
2022-08-05T13:28:57.342Z,1.95
2022-08-05T13:31:33.857Z,1.10
2022-08-05T13:34:25.026Z,2.22
2022-08-05T13:36:53.574Z,2.50
2022-08-05T13:39:24.661Z,1.58
2022-08-05T13:42:14.364Z,0.40
2022-08-05T13:44:45.519Z,1.50
2022-08-05T13:47:34.724Z,1.88
2022-08-05T13:50:01.193Z,2.75
2022-08-05T13:52:35.282Z,4.07
2022-08-05T13:57:50.719Z,2.15
2022-08-05T14:00:26.903Z,2.30
2022-08-05T14:02:55.887Z,1.85
2022-08-05T14:05:48.287Z,3.17
2022-08-05T14:08:20.292Z,2.55
2022-08-05T14:10:50.047Z,3.28
2022-08-05T14:13:17.369Z,1.77
2022-08-05T14:16:04.465Z,2.00
2022-08-05T14:18:34.402Z,2.50
2022-08-05T14:22:07.325Z,4.53
2022-08-05T14:23:53.230Z,1.98
2022-08-05T14:26:36.192Z,2.17
2022-08-05T14:29:07.561Z,2.88
2022-08-05T14:32:03.541Z,2.15
2022-08-05T14:34:35.099Z,3.50
2022-08-05T14:39:29.941Z,3.10
2022-08-05T14:42:20.781Z,2.83
2022-08-05T14:44:51.411Z,3.50
2022-08-05T14:47:23.948Z,6.10
2022-08-05T14:50:17.694Z,0.68
2022-08-05T14:52:58.726Z,1.40
2022-08-05T14:55:38.560Z,2.67
2022-08-05T14:58:12.059Z,1.05
2022-08-05T15:00:59.081Z,1.50
2022-08-05T15:03:33.257Z,0.73
2022-08-05T15:06:08.098Z,1.67
2022-08-05T15:09:01.210Z,2.40
2022-08-05T15:11:51.275Z,1.40
2022-08-05T15:14:20.085Z,0.90
2022-08-05T15:17:04.148Z,2.28
2022-08-05T15:19:32.912Z,1.83
2022-08-05T15:24:28.912Z,0.32
2022-08-05T15:26:57.018Z,0.95
2022-08-05T15:29:30.154Z,0.70
2022-08-05T15:32:03.372Z,3.30
2022-08-05T15:34:33.812Z,3.40
2022-08-05T15:37:06.203Z,0.82
2022-08-05T15:41:00.102Z,2.85
2022-08-05T15:42:50.370Z,1.13
2022-08-05T16:02:58.097Z,1.42
2022-08-05T16:05:28.499Z,2.90
2022-08-05T16:07:55.761Z,1.45
2022-08-05T16:10:25.512Z,1.80
2022-08-05T16:12:55.914Z,2.50
2022-08-05T16:17:59.842Z,2.92
2022-08-05T16:20:27.801Z,3.75
2022-08-05T16:22:55.472Z,2.25
2022-08-05T16:25:32.254Z,1.73
2022-08-05T16:28:05.469Z,1.85
2022-08-05T16:30:36.192Z,2.75
2022-08-05T16:33:03.661Z,2.57
2022-08-05T16:35:33.603Z,2.45
2022-08-05T16:38:23.951Z,3.60
2022-08-05T16:40:59.885Z,3.35
2022-08-05T16:43:30.571Z,3.33
2022-08-05T16:46:03.673Z,2.25
2022-08-05T16:48:38.388Z,3.75
2022-08-05T16:51:10.024Z,2.10
2022-08-05T16:54:05.178Z,2.05
2022-08-05T16:56:27.430Z,1.30
2022-08-05T17:03:52.108Z,1.25
2022-08-05T17:16:36.505Z,3.45
2022-08-05T17:19:07.491Z,1.52
2022-08-05T17:21:36.768Z,1.70
2022-08-05T17:24:18.628Z,1.90
2022-08-05T17:29:22.469Z,1.83
2022-08-05T17:35:20.845Z,4.85
2022-08-05T17:40:17.897Z,2.80
2022-08-05T17:42:50.847Z,3.00
2022-08-05T17:45:21.168Z,3.25
2022-08-05T17:47:53.839Z,4.40
2022-08-05T17:50:28.020Z,2.10
2022-08-05T17:55:27.275Z,4.03
2022-08-05T17:58:02.444Z,4.22
2022-08-05T18:00:30.174Z,3.15
2022-08-05T18:02:58.101Z,2.97
2022-08-05T18:05:27.965Z,1.08
2022-08-05T18:07:56.834Z,2.63
2022-08-05T18:10:24.291Z,5.25
2022-08-05T18:12:51.608Z,2.80
2022-08-05T18:15:19.330Z,5.00
2022-08-05T18:17:58.926Z,3.15
2022-08-05T18:20:32.408Z,4.95
2022-08-05T18:23:00.599Z,3.20
2022-08-05T18:25:38.912Z,7.60
2022-08-05T18:28:06.702Z,3.40
2022-08-05T18:30:34.330Z,6.40
2022-08-05T18:33:01.968Z,2.60
2022-08-05T18:41:53.397Z,5.53
2022-08-05T18:43:37.970Z,6.03
2022-08-05T18:46:10.199Z,5.53
2022-08-05T18:48:41.731Z,4.95
2022-08-05T18:52:06.205Z,7.70
2022-08-05T18:56:51.302Z,4.18
2022-08-05T18:59:42.752Z,5.18
2022-08-05T19:02:26.847Z,4.15
2022-08-05T19:05:02.337Z,4.65
2022-08-05T19:07:46.123Z,6.47
2022-08-05T19:10:15.400Z,4.70
2022-08-05T19:12:43.207Z,3.35
2022-08-05T19:15:56.884Z,5.53
2022-08-05T19:20:41.617Z,4.15
2022-08-05T19:24:04.351Z,5.00
2022-08-05T19:26:01.992Z,5.40
2022-08-05T19:28:30.331Z,6.53
2022-08-05T19:30:57.590Z,5.28
2022-08-05T19:33:35.696Z,4.20
2022-08-05T19:36:05.988Z,6.70
2022-08-05T19:38:35.728Z,7.30
2022-08-05T19:41:06.973Z,5.22
2022-08-05T19:44:05.940Z,4.45
2022-08-05T19:46:30.221Z,7.25
2022-08-05T19:49:03.348Z,4.95
2022-08-05T19:52:05.206Z,3.23
2022-08-05T19:57:02.325Z,3.60
2022-08-05T19:59:56.005Z,2.08
2022-08-05T20:02:18.881Z,6.82
2022-08-05T20:04:48.368Z,2.40
2022-08-05T20:07:15.773Z,4.25
2022-08-05T20:10:11.493Z,3.47
2022-08-05T20:15:23.002Z,7.15
2022-08-05T20:18:10.412Z,4.43
2022-08-05T20:20:51.738Z,7.10
2022-08-05T20:23:22.247Z,4.60
2022-08-05T20:25:49.446Z,3.25
2022-08-05T20:28:21.036Z,4.93
2022-08-05T20:30:49.673Z,4.32
2022-08-05T20:33:17.317Z,5.82
2022-08-05T20:35:48.492Z,4.55
2022-08-05T20:38:22.615Z,5.55
2022-08-05T20:43:57.919Z,9.52
2022-08-05T20:59:00.087Z,5.20
2022-08-05T21:09:12.636Z,4.00
2022-08-05T21:12:09.396Z,8.60
2022-08-05T21:17:02.922Z,8.80
2022-08-05T21:19:47.107Z,5.20
2022-08-05T21:22:17.611Z,6.07
2022-08-05T21:24:48.840Z,6.72
2022-08-05T21:27:18.505Z,6.82
2022-08-05T21:29:50.891Z,4.80
2022-08-05T21:32:20.192Z,7.85
2022-08-05T21:35:08.662Z,5.55
2022-08-05T21:37:35.043Z,5.55
2022-08-05T21:47:55.958Z,4.13
2022-08-05T21:50:25.078Z,2.83
2022-08-05T21:52:52.263Z,4.15
2022-08-05T21:56:01.315Z,4.35
2022-08-05T22:00:41.171Z,5.50
2022-08-05T22:03:18.431Z,5.60
2022-08-05T22:06:06.325Z,8.80
2022-08-05T22:08:35.543Z,3.13
2022-08-05T22:11:02.969Z,4.20
2022-08-05T22:14:06.649Z,6.50
2022-08-05T22:40:50.004Z,7.28
2022-08-05T22:43:36.674Z,6.03
2022-08-05T22:46:11.896Z,5.13
2022-08-05T22:48:43.164Z,4.40
2022-08-05T22:51:22.443Z,3.03
2022-08-05T22:53:50.863Z,5.95
2022-08-05T22:56:30.337Z,4.18
2022-08-05T22:59:00.022Z,5.43
2022-08-05T23:02:04.733Z,2.13
2022-08-05T23:04:18.777Z,7.65
2022-08-05T23:06:47.771Z,4.53
2022-08-05T23:09:52.561Z,7.07
2022-08-05T23:12:02.749Z,7.55
2022-08-05T23:14:32.316Z,5.57
2022-08-05T23:17:24.251Z,6.50
2022-08-05T23:20:02.430Z,3.50
2022-08-05T23:22:30.857Z,5.72
2022-08-05T23:24:58.609Z,3.65
2022-08-05T23:27:28.854Z,4.45
2022-08-05T23:30:00.953Z,7.38
2022-08-05T23:32:28.567Z,7.32
2022-08-05T23:37:26.630Z,6.32
2022-08-05T23:40:01.574Z,3.92
2022-08-05T23:42:37.335Z,10.27
2022-08-05T23:52:49.865Z,3.05
